createdAt,value
2018-09-14T05:47:24.074Z,16.10
2018-09-14T05:49:52.376Z,16.00
2018-09-14T05:52:20.801Z,16.20
2018-09-14T05:54:49.136Z,16.30
2018-09-14T05:57:17.422Z,16.50
2018-09-14T05:59:45.752Z,16.60
2018-09-14T06:02:14.077Z,16.70
2018-09-14T06:04:42.310Z,16.80
2018-09-14T06:07:10.572Z,16.90
2018-09-14T06:09:38.797Z,17.10
2018-09-14T06:12:07.241Z,17.00
2018-09-14T06:14:35.596Z,17.10
2018-09-14T06:17:03.882Z,17.30
2018-09-14T06:19:32.158Z,17.30
2018-09-14T06:22:00.445Z,17.40
2018-09-14T06:24:28.740Z,17.50
2018-09-14T06:26:57.128Z,17.40
2018-09-14T06:29:25.430Z,17.40
2018-09-14T06:31:53.737Z,17.50
2018-09-14T06:34:22.055Z,17.70
2018-09-14T06:36:50.332Z,17.60
2018-09-14T06:39:18.680Z,17.50
2018-09-14T06:41:46.940Z,17.50
2018-09-14T06:44:15.180Z,17.40
2018-09-14T06:46:43.395Z,17.40
2018-09-14T06:49:11.715Z,17.30
2018-09-14T06:51:40.010Z,17.30
2018-09-14T06:54:08.724Z,17.20
2018-09-14T06:56:37.014Z,17.20
2018-09-14T06:59:05.362Z,17.40
2018-09-14T07:01:33.631Z,17.30
2018-09-14T07:04:01.869Z,17.20
2018-09-14T07:06:30.357Z,17.20
2018-09-14T07:08:58.652Z,17.20
2018-09-14T07:11:26.996Z,17.10
2018-09-14T07:13:55.256Z,17.10
2018-09-14T07:16:23.469Z,17.10
2018-09-14T07:18:51.737Z,17.10
2018-09-14T07:21:20.032Z,17.20
2018-09-14T07:23:48.304Z,17.40
2018-09-14T07:26:16.584Z,17.50
2018-09-14T07:28:44.903Z,17.50
2018-09-14T07:31:13.151Z,17.60
2018-09-14T07:33:41.472Z,17.70
2018-09-14T07:36:09.767Z,17.80
2018-09-14T07:38:38.444Z,18.10
2018-09-14T07:41:07.087Z,18.20
2018-09-14T07:43:35.337Z,18.30
2018-09-14T07:46:03.623Z,18.40
2018-09-14T07:48:31.899Z,18.50
2018-09-14T07:51:00.149Z,18.50
2018-09-14T07:53:28.430Z,18.50
2018-09-14T07:55:56.822Z,18.60
2018-09-14T07:58:25.098Z,18.60
2018-09-14T08:00:53.343Z,18.60
2018-09-14T08:03:21.609Z,18.60
2018-09-14T08:05:49.959Z,18.70
2018-09-14T08:08:18.344Z,18.70
2018-09-14T08:10:46.639Z,18.80
2018-09-14T08:13:14.956Z,19.10
2018-09-14T08:15:43.177Z,19.20
2018-09-14T08:18:11.438Z,19.30
2018-09-14T08:20:39.759Z,19.30
2018-09-14T08:23:07.984Z,19.40
2018-09-14T08:25:36.276Z,19.50
2018-09-14T08:28:04.555Z,19.50
2018-09-14T08:30:32.795Z,19.50
2018-09-14T08:33:01.068Z,19.60
2018-09-14T08:35:29.333Z,19.70
2018-09-14T08:37:57.640Z,19.60
2018-09-14T08:40:25.884Z,19.70
2018-09-14T08:42:54.204Z,19.70
2018-09-14T08:45:22.496Z,19.80
2018-09-14T08:47:50.771Z,19.80
2018-09-14T08:50:19.132Z,19.90
2018-09-14T08:52:47.517Z,19.90
2018-09-14T08:55:15.831Z,19.90
2018-09-14T08:57:44.133Z,19.90
2018-09-14T09:00:12.458Z,19.90
2018-09-14T09:02:40.768Z,19.90
2018-09-14T09:05:09.112Z,20.00
2018-09-14T09:07:37.440Z,20.20
2018-09-14T09:10:05.742Z,20.30
2018-09-14T09:12:34.075Z,20.50
2018-09-14T09:15:02.374Z,20.60
2018-09-14T09:17:30.653Z,20.70
2018-09-14T09:20:00.102Z,20.70
2018-09-14T09:22:28.401Z,20.70
2018-09-14T09:24:56.728Z,20.60
2018-09-14T09:27:25.049Z,20.50
2018-09-14T09:29:53.307Z,20.40
2018-09-14T09:32:21.587Z,20.20
2018-09-14T09:34:49.862Z,20.30
2018-09-14T09:37:18.121Z,20.40
2018-09-14T09:39:46.470Z,20.50
2018-09-14T09:42:14.728Z,20.50
2018-09-14T09:44:43.047Z,20.70
2018-09-14T09:47:11.356Z,20.70
2018-09-14T09:49:39.696Z,20.70
2018-09-14T09:52:07.977Z,20.60
2018-09-14T09:54:36.323Z,20.60
2018-09-14T09:57:04.591Z,20.50
2018-09-14T09:59:32.896Z,20.50
2018-09-14T10:02:06.731Z,20.60
2018-09-14T10:05:44.451Z,20.60
2018-09-14T10:08:12.772Z,20.50
2018-09-14T10:10:41.062Z,20.40
2018-09-14T10:13:09.316Z,20.50
2018-09-14T10:15:37.608Z,20.70
2018-09-14T10:18:05.926Z,20.90
2018-09-14T10:20:34.230Z,21.00
2018-09-14T10:23:02.501Z,20.90
2018-09-14T10:25:30.813Z,20.90
2018-09-14T10:27:59.157Z,21.00
2018-09-14T10:30:27.414Z,21.00
2018-09-14T10:32:55.674Z,21.00
2018-09-14T10:35:24.013Z,21.10
2018-09-14T10:37:52.338Z,21.10
2018-09-14T10:40:20.584Z,21.00
2018-09-14T10:42:48.942Z,21.10
2018-09-14T10:45:17.191Z,21.10
2018-09-14T10:47:45.411Z,21.10
2018-09-14T10:50:13.701Z,21.10
2018-09-14T10:52:41.999Z,21.20
2018-09-14T10:55:10.313Z,21.10
2018-09-14T10:57:38.547Z,21.20
2018-09-14T11:00:06.892Z,21.40
2018-09-14T11:02:35.191Z,21.30
2018-09-14T11:05:03.503Z,21.30
2018-09-14T11:07:31.757Z,21.10
2018-09-14T11:10:00.119Z,21.10
2018-09-14T11:12:28.394Z,21.30
2018-09-14T11:14:56.683Z,21.20
2018-09-14T11:17:25.014Z,21.40
2018-09-14T11:19:53.300Z,21.50
2018-09-14T11:22:21.732Z,21.50
2018-09-14T11:24:50.155Z,21.60
2018-09-14T11:27:18.241Z,21.90
2018-09-14T11:29:46.568Z,22.20
2018-09-14T11:32:14.839Z,22.10
2018-09-14T11:34:43.063Z,22.00
2018-09-14T11:37:11.343Z,22.20
2018-09-14T11:39:39.582Z,22.50
2018-09-14T11:42:07.842Z,22.70
2018-09-14T11:44:36.125Z,22.70
2018-09-14T11:47:04.412Z,22.70
2018-09-14T11:49:32.702Z,22.50
2018-09-14T11:52:01.178Z,22.40
2018-09-14T11:54:29.450Z,22.40
2018-09-14T11:56:57.762Z,22.00
2018-09-14T11:59:26.094Z,21.80
2018-09-14T12:01:54.686Z,21.90
2018-09-14T12:04:23.301Z,22.20
2018-09-14T12:06:51.471Z,22.30
2018-09-14T12:09:19.729Z,22.00
2018-09-14T12:11:48.050Z,22.00
2018-09-14T12:14:16.336Z,22.40
2018-09-14T12:16:44.648Z,22.40
2018-09-14T12:19:12.880Z,22.80
2018-09-14T12:21:41.136Z,22.90
2018-09-14T12:24:09.488Z,22.90
2018-09-14T12:26:37.768Z,23.10
2018-09-14T12:29:06.133Z,23.20
2018-09-14T12:31:34.407Z,23.40
2018-09-14T12:34:02.700Z,23.40
2018-09-14T12:36:31.019Z,23.30
2018-09-14T12:38:59.338Z,23.40
2018-09-14T12:41:27.551Z,23.60
2018-09-14T12:43:55.813Z,23.60
2018-09-14T12:46:24.122Z,23.70
2018-09-14T12:48:52.374Z,23.60
2018-09-14T12:51:20.670Z,23.70
2018-09-14T12:53:48.955Z,23.70
2018-09-14T12:56:17.201Z,24.00
2018-09-14T12:58:45.468Z,24.00
2018-09-14T13:01:13.692Z,23.80
2018-09-14T13:03:41.962Z,23.80
2018-09-14T13:06:10.201Z,23.70
2018-09-14T13:08:38.529Z,23.70
2018-09-14T13:11:06.936Z,23.60
2018-09-14T13:13:35.254Z,23.60
2018-09-14T13:16:03.610Z,23.50
2018-09-14T13:18:31.851Z,23.50
2018-09-14T13:21:00.336Z,23.50
2018-09-14T13:23:28.609Z,23.40
